Weather at Robin Hood Doncaster Sheffield Airport

Public forecast

Using degrees Celsius for public forecast. Weather courtesy of forecast.io.

Current aviation weather report (METAR) for Robin Hood Doncaster Sheffield Airport

Retrieved 2020/11/24 16:20 UTC (0 seconds ago):

EGCN 241620Z 15009KT CAVOK 10/07 Q1010

Aviation forecast (TAF) for Robin Hood Doncaster Sheffield Airport

Retrieved 2020/11/24 12:00 UTC (4 hours ago):

TAF EGCN 241057Z 2412/2512 20010KT 9999 SCT025 PROB30 TEMPO 2412/2504 18015G25KT BKN014 BECMG 2504/2507 30007KT TEMPO 2504/2512 8000 -RA BKN010 PROB30 TEMPO 2504/2512 RA BKN004